Time;durP1;ratioP1;P1;durP2;ratioP2;P2;SDS_P1;SDS_P2;PMS_P1;PMS_P2;Temp;Humidity;BMP_temperature;BMP_pressure;BME280_temperature;BME280_humidity;BME280_pressure;Samples;Min_cycle;Max_cycle;Signal;HPM_P1;HPM_P2
2022/12/14 00:02:20;;;;;;;54.42;24.80;;;-3.80;99.90;;;;;;5010261;28;20046;-73
2022/12/14 00:04:46;;;;;;;48.88;23.85;;;-3.80;99.90;;;;;;5010677;28;20409;-73
2022/12/14 00:07:11;;;;;;;40.55;22.33;;;-3.80;99.90;;;;;;5010928;28;20046;-71
2022/12/14 00:09:37;;;;;;;50.80;24.23;;;-3.80;99.90;;;;;;5011025;28;20129;-71
2022/12/14 00:12:03;;;;;;;46.55;22.80;;;-3.80;99.90;;;;;;5010822;28;20410;-72
2022/12/14 00:14:28;;;;;;;47.75;23.40;;;-3.80;99.90;;;;;;5010083;28;20049;-72
2022/12/14 00:16:54;;;;;;;42.90;23.60;;;-3.80;99.90;;;;;;4992542;28;20048;-71
2022/12/14 00:19:19;;;;;;;44.85;23.50;;;-3.80;99.90;;;;;;4992607;28;20049;-70
2022/12/14 00:21:45;;;;;;;48.97;23.90;;;-3.80;99.90;;;;;;5010410;28;20107;-77
2022/12/14 00:24:11;;;;;;;43.88;22.63;;;-3.80;99.90;;;;;;4993856;28;20058;-71
2022/12/14 00:26:36;;;;;;;41.33;21.05;;;-3.80;99.90;;;;;;4992862;28;20050;-72
2022/12/14 00:29:02;;;;;;;44.85;23.02;;;-3.80;99.90;;;;;;5010417;28;20365;-71
2022/12/14 00:31:30;;;;;;;41.95;21.67;;;-3.80;99.90;;;;;;5010422;28;20132;-70
2022/12/14 00:33:55;;;;;;;45.17;22.33;;;-3.80;99.90;;;;;;5009819;28;20104;-70
2022/12/14 00:36:22;;;;;;;44.97;22.13;;;-3.80;99.90;;;;;;5010723;28;20544;-72
2022/12/14 00:38:48;;;;;;;41.80;21.63;;;-3.90;99.90;;;;;;4992992;28;20062;-72
2022/12/14 00:41:14;;;;;;;45.25;23.30;;;-3.90;99.90;;;;;;5010700;28;20049;-72
2022/12/14 00:43:40;;;;;;;42.03;21.00;;;-3.90;99.90;;;;;;5010538;28;20503;-72
2022/12/14 00:46:06;;;;;;;43.28;23.15;;;-3.90;99.90;;;;;;4981654;28;20046;-72
2022/12/14 00:48:32;;;;;;;39.40;21.95;;;-4.00;99.90;;;;;;5009783;28;20049;-74
2022/12/14 00:50:57;;;;;;;47.65;22.75;;;-4.00;99.90;;;;;;5010088;28;20523;-71
2022/12/14 00:53:24;;;;;;;47.15;21.98;;;-4.10;99.90;;;;;;5009842;28;20448;-71
2022/12/14 00:55:50;;;;;;;44.33;21.60;;;-4.10;99.90;;;;;;5009817;28;20409;-76
2022/12/14 00:58:21;;;;;;;44.40;21.63;;;-4.10;99.90;;;;;;5010004;28;20703;-71
2022/12/14 01:00:56;;;;;;;42.85;22.33;;;-4.20;99.90;;;;;;4992253;28;20057;-72
2022/12/14 01:03:22;;;;;;;45.47;21.55;;;-4.30;99.90;;;;;;4992327;28;20084;-72
2022/12/14 01:05:48;;;;;;;40.92;20.52;;;-4.30;99.90;;;;;;5009791;28;20049;-70
2022/12/14 01:08:14;;;;;;;45.25;22.30;;;-4.40;99.90;;;;;;4991585;28;20173;-71
2022/12/14 01:10:40;;;;;;;39.53;20.38;;;-4.40;99.90;;;;;;4975248;28;20626;-79
2022/12/14 01:13:05;;;;;;;38.92;20.05;;;-4.50;99.90;;;;;;5009698;28;20129;-73
2022/12/14 01:15:33;;;;;;;39.45;20.45;;;-4.50;99.90;;;;;;5009519;28;20049;-72
2022/12/14 01:17:59;;;;;;;39.83;20.48;;;-4.50;99.90;;;;;;4991480;28;20115;-73
2022/12/14 01:20:24;;;;;;;42.55;22.33;;;-4.50;99.90;;;;;;5009515;28;20473;-72
2022/12/14 01:22:54;;;;;;;44.95;22.33;;;-4.60;99.90;;;;;;4991457;28;20049;-72
2022/12/14 01:25:20;;;;;;;39.00;21.30;;;-4.60;99.90;;;;;;5009289;28;20178;-72
2022/12/14 01:27:46;;;;;;;43.13;22.73;;;-4.70;99.90;;;;;;5009499;28;20081;-71
2022/12/14 01:30:12;;;;;;;44.20;21.75;;;-4.80;99.90;;;;;;4991268;28;20567;-72
2022/12/14 01:32:38;;;;;;;37.80;19.48;;;-4.90;99.90;;;;;;5009394;28;20470;-71
2022/12/14 01:35:04;;;;;;;38.95;19.65;;;-4.90;99.90;;;;;;5008987;28;20049;-72
2022/12/14 01:37:29;;;;;;;38.55;19.55;;;-5.00;99.90;;;;;;4991531;28;20111;-72
2022/12/14 01:39:55;;;;;;;37.23;19.27;;;-5.10;99.90;;;;;;5009389;28;20050;-75
2022/12/14 01:42:20;;;;;;;41.63;20.25;;;-5.10;99.90;;;;;;4993086;28;20052;-72
2022/12/14 01:44:53;;;;;;;39.73;19.90;;;-5.20;99.90;;;;;;5009371;28;20560;-72
2022/12/14 01:47:27;;;;;;;42.77;20.27;;;-5.30;99.90;;;;;;5009233;28;20042;-71
2022/12/14 01:50:00;;;;;;;41.17;19.87;;;-5.30;99.90;;;;;;4991768;28;20057;-70
2022/12/14 01:52:46;;;;;;;37.70;18.87;;;-5.40;99.90;;;;;;5009226;28;20069;-71
2022/12/14 01:55:25;;;;;;;42.03;19.80;;;-5.40;99.90;;;;;;4988902;28;20053;-70
2022/12/14 01:57:56;;;;;;;38.13;19.35;;;-5.40;99.90;;;;;;4991474;28;20053;-71
2022/12/14 02:00:22;;;;;;;43.20;20.87;;;-5.50;99.90;;;;;;5009150;28;20053;-71
2022/12/14 02:03:09;;;;;;;40.73;20.70;;;-5.50;99.90;;;;;;4991148;28;20189;-72
2022/12/14 02:05:39;;;;;;;41.53;20.90;;;-5.50;99.90;;;;;;5009116;28;20508;-71
2022/12/14 02:08:07;;;;;;;36.67;19.23;;;-5.60;99.90;;;;;;4974849;28;20141;-70
2022/12/14 02:10:33;;;;;;;37.63;20.13;;;-5.60;99.90;;;;;;5008935;28;20385;-70
2022/12/14 02:13:19;;;;;;;40.13;19.47;;;-5.70;99.90;;;;;;5009388;28;20046;-71
2022/12/14 02:15:44;;;;;;;;;;;-5.70;99.90;;;;;;5010221;28;20045;-71
2022/12/14 02:18:17;;;;;;;37.77;18.67;;;-5.80;99.90;;;;;;4991684;28;19926;-71
2022/12/14 02:20:47;;;;;;;44.03;19.60;;;-5.90;99.90;;;;;;4994052;28;20045;-72
2022/12/14 02:23:47;;;;;;;37.63;18.63;;;-5.90;99.90;;;;;;5012753;28;20052;-70
2022/12/14 02:26:18;;;;;;;41.63;19.73;;;-5.90;99.90;;;;;;4995544;28;20037;-71
2022/12/14 02:28:58;;;;;;;40.53;19.90;;;-6.00;99.90;;;;;;5013138;28;20575;-70
2022/12/14 02:31:36;;;;;;;41.37;20.20;;;-6.00;99.90;;;;;;5012732;28;20077;-72
2022/12/14 02:34:31;;;;;;;43.93;20.33;;;-6.00;99.90;;;;;;5012715;28;20051;-70
2022/12/14 02:37:06;;;;;;;41.83;20.70;;;-6.00;99.90;;;;;;4932699;29;20063;-71
2022/12/14 02:39:52;;;;;;;42.55;20.02;;;-6.00;99.90;;;;;;4932692;29;20059;-75
2022/12/14 02:42:33;;;;;;;39.83;19.93;;;-6.00;99.90;;;;;;4916822;29;20138;-72
2022/12/14 02:45:11;;;;;;;39.27;18.73;;;-6.10;99.90;;;;;;4916478;29;20095;-71
2022/12/14 02:47:53;;;;;;;37.93;19.43;;;-6.10;99.90;;;;;;4925139;29;20098;-78
2022/12/14 02:50:30;;;;;;;39.57;19.17;;;-6.20;99.90;;;;;;4932261;29;20043;-70
2022/12/14 02:53:46;;;;;;;39.83;20.53;;;-6.20;99.90;;;;;;4932070;29;20096;-70
2022/12/14 02:56:18;;;;;;;45.30;19.95;;;-6.20;99.90;;;;;;4891810;29;20199;-71
2022/12/14 02:58:49;;;;;;;35.13;17.63;;;-6.20;99.90;;;;;;4913158;29;20060;-71
2022/12/14 03:01:26;;;;;;;42.37;19.73;;;-6.30;99.90;;;;;;4916377;29;20056;-69
2022/12/14 03:03:52;;;;;;;41.50;20.27;;;-6.30;99.90;;;;;;4925757;29;20138;-71
2022/12/14 03:06:26;;;;;;;39.83;18.97;;;-6.30;99.90;;;;;;4916326;29;20150;-71
2022/12/14 03:09:16;;;;;;;43.67;19.47;;;-6.40;99.90;;;;;;4927498;29;20076;-74
2022/12/14 03:11:54;;;;;;;43.63;20.93;;;-6.40;99.90;;;;;;4920046;29;20060;-70
2022/12/14 03:14:42;;;;;;;43.80;19.93;;;-6.40;99.90;;;;;;4937486;29;20051;-72
2022/12/14 03:17:24;;;;;;;42.70;20.23;;;-6.30;99.90;;;;;;4950695;29;20224;-72
2022/12/14 03:19:55;;;;;;;42.70;19.97;;;-6.30;99.90;;;;;;4934939;29;20490;-71
2022/12/14 03:22:32;;;;;;;41.17;20.63;;;-6.20;99.90;;;;;;4950610;29;20139;-71
2022/12/14 03:25:04;;;;;;;40.10;19.97;;;-6.20;99.90;;;;;;4950143;29;20055;-71
2022/12/14 03:27:33;;;;;;;44.30;20.90;;;-6.20;99.90;;;;;;4950437;29;20119;-76
2022/12/14 03:30:07;;;;;;;46.63;22.30;;;-6.20;99.90;;;;;;4975470;28;20089;-71
2022/12/14 03:32:37;;;;;;;39.37;18.93;;;-6.20;99.90;;;;;;4993207;28;20068;-71
2022/12/14 03:35:31;;;;;;;38.07;18.73;;;-6.20;99.90;;;;;;4993647;28;20054;-74
2022/12/14 03:38:03;;;;;;;41.33;19.37;;;-6.20;99.90;;;;;;4993400;28;20076;-71
2022/12/14 03:40:36;;;;;;;43.77;21.20;;;-6.20;99.90;;;;;;5010368;28;20596;-71
2022/12/14 03:43:42;;;;;;;39.10;19.00;;;-6.20;99.90;;;;;;5012313;28;20052;-75
2022/12/14 03:46:37;;;;;;;41.55;19.33;;;-6.20;99.90;;;;;;4950061;28;20090;-71
2022/12/14 03:49:32;;;;;;;40.25;19.67;;;-6.20;99.90;;;;;;4964310;28;20043;-72
2022/12/14 03:52:11;;;;;;;46.00;19.98;;;-5.50;99.90;;;;;;4951546;28;20145;-71
2022/12/14 03:55:04;;;;;;;42.63;19.67;;;-6.20;99.90;;;;;;4971764;28;20100;-75
2022/12/14 03:57:35;;;;;;;40.90;18.33;;;-6.20;99.90;;;;;;4988792;28;20050;-73
2022/12/14 04:00:06;;;;;;;42.83;19.47;;;-6.20;99.90;;;;;;4988622;28;20161;-74
2022/12/14 04:02:42;;;;;;;46.27;19.80;;;-6.20;99.90;;;;;;4959874;28;20061;-70
2022/12/14 04:05:30;;;;;;;40.10;19.40;;;-6.20;99.90;;;;;;4988747;28;20417;-70
2022/12/14 04:08:39;;;;;;;41.13;18.77;;;-6.20;99.90;;;;;;4974396;28;20053;-71
2022/12/14 04:19:47;;;;;;;44.23;19.23;;;-6.30;99.90;;;;;;4930669;29;20826;-71
2022/12/14 04:22:24;;;;;;;42.53;19.43;;;-6.30;99.90;;;;;;4951459;28;20063;-73
2022/12/14 04:27:53;;;;;;;45.70;19.27;;;-6.40;99.90;;;;;;4951678;28;20475;-78
2022/12/14 04:30:19;;;;;;;44.60;19.67;;;-6.40;99.90;;;;;;4968751;28;20042;-73
2022/12/14 04:32:53;;;;;;;40.37;18.97;;;-6.50;99.90;;;;;;4964022;28;20054;-69
2022/12/14 04:35:22;;;;;;;47.50;19.67;;;-6.50;99.90;;;;;;4949371;29;20408;-74
2022/12/14 04:37:51;;;;;;;36.13;17.57;;;-6.50;99.90;;;;;;4949697;28;20058;-71
2022/12/14 04:40:37;;;;;;;40.83;19.07;;;-6.60;99.90;;;;;;4958716;28;20059;-71
2022/12/14 04:43:15;;;;;;;43.67;19.00;;;-6.60;99.90;;;;;;4967489;28;20065;-71
2022/12/14 04:45:51;;;;;;;40.63;19.07;;;-6.70;99.90;;;;;;4949323;29;20059;-73
2022/12/14 04:48:38;;;;;;;36.07;18.30;;;-6.70;99.90;;;;;;4989961;28;20096;-73
2022/12/14 04:51:11;;;;;;;36.93;17.03;;;-6.70;99.90;;;;;;5030109;28;20428;-71
2022/12/14 04:53:39;;;;;;;37.50;17.43;;;-6.80;99.90;;;;;;5011424;28;20065;-74
2022/12/14 04:56:29;;;;;;;44.63;19.20;;;-6.90;99.90;;;;;;5029614;28;20543;-71
2022/12/14 04:58:54;;;;;;;42.00;17.53;;;-6.90;99.90;;;;;;5027700;28;20760;-71
2022/12/14 05:01:38;;;;;;;35.47;17.13;;;-6.90;99.90;;;;;;5011440;28;20132;-70
2022/12/14 05:04:04;;;;;;;34.30;17.10;;;-7.00;99.90;;;;;;5029525;28;20055;-70
2022/12/14 05:06:56;;;;;;;36.93;17.13;;;-7.00;99.90;;;;;;5011346;28;20153;-71
2022/12/14 05:09:21;;;;;;;36.30;17.27;;;-7.00;99.90;;;;;;5007826;28;20045;-70
2022/12/14 05:12:13;;;;;;;35.47;16.70;;;-7.10;99.90;;;;;;5009098;28;20555;-71
2022/12/14 05:15:08;;;;;;;37.50;17.17;;;-7.10;99.90;;;;;;4948104;29;20058;-71
2022/12/14 05:17:37;;;;;;;39.80;17.90;;;-7.20;99.90;;;;;;4910928;29;20297;-70
2022/12/14 05:20:04;;;;;;;39.27;18.83;;;-7.20;99.90;;;;;;4910415;29;20070;-72
2022/12/14 05:22:30;;;;;;;34.93;17.53;;;-7.20;99.90;;;;;;4929716;29;20055;-71
2022/12/14 05:24:55;;;;;;;38.83;17.77;;;-7.30;99.90;;;;;;4929433;29;20114;-77
2022/12/14 05:27:21;;;;;;;36.87;17.40;;;-7.30;99.90;;;;;;4929632;29;20052;-74
2022/12/14 05:29:46;;;;;;;39.77;18.00;;;-7.30;99.90;;;;;;4930666;29;20071;-71
2022/12/14 05:32:12;;;;;;;34.30;16.80;;;-7.40;99.90;;;;;;4913996;29;20059;-72
2022/12/14 05:34:38;;;;;;;36.40;16.90;;;-7.40;99.90;;;;;;4929805;29;20575;-73
2022/12/14 05:37:04;;;;;;;40.00;18.13;;;-7.40;99.90;;;;;;4929554;29;20070;-72
2022/12/14 05:39:29;;;;;;;36.07;16.80;;;-7.40;99.90;;;;;;4930207;29;20085;-71
2022/12/14 05:41:55;;;;;;;40.33;18.97;;;-7.40;99.90;;;;;;4913618;29;20503;-72
2022/12/14 05:44:21;;;;;;;38.40;17.97;;;-7.50;99.90;;;;;;4929648;29;20146;-73
2022/12/14 05:46:47;;;;;;;37.90;17.57;;;-7.40;99.90;;;;;;4929436;29;20062;-73
2022/12/14 05:49:12;;;;;;;41.43;18.63;;;-7.50;99.90;;;;;;4929579;29;20106;-70
2022/12/14 05:51:38;;;;;;;39.37;18.23;;;-7.40;99.90;;;;;;4976487;28;20057;-71
2022/12/14 05:54:04;;;;;;;38.93;18.10;;;-7.50;99.90;;;;;;5009631;28;20121;-71
2022/12/14 05:56:30;;;;;;;40.23;18.30;;;-7.50;99.90;;;;;;5013232;28;20057;-71
2022/12/14 05:58:56;;;;;;;38.17;17.60;;;-7.60;99.90;;;;;;5013421;28;20084;-70
2022/12/14 06:01:22;;;;;;;39.03;17.90;;;-7.60;99.90;;;;;;5001581;28;20046;-70
2022/12/14 06:03:51;;;;;;;38.70;18.90;;;-7.60;99.90;;;;;;4996298;28;20152;-70
2022/12/14 06:06:16;;;;;;;38.23;18.63;;;-7.60;99.90;;;;;;4995626;28;20058;-70
2022/12/14 06:08:44;;;;;;;38.83;17.43;;;-7.60;99.90;;;;;;4995800;28;20084;-71
2022/12/14 06:11:21;;;;;;;39.10;17.67;;;-7.60;99.90;;;;;;4996248;28;20050;-74
2022/12/14 06:13:47;;;;;;;35.67;16.70;;;-7.70;99.90;;;;;;4992040;28;20042;-71
2022/12/14 06:16:21;;;;;;;36.97;17.30;;;-7.70;99.90;;;;;;4975866;28;20104;-71
2022/12/14 06:18:53;;;;;;;38.63;17.60;;;-7.70;99.90;;;;;;4992055;28;20054;-71
2022/12/14 06:21:22;;;;;;;39.03;17.53;;;-7.80;99.90;;;;;;4992013;28;20061;-78
2022/12/14 06:23:48;;;;;;;39.87;18.10;;;-7.70;99.90;;;;;;4993471;28;20144;-72
2022/12/14 06:26:14;;;;;;;38.73;17.30;;;-7.80;99.90;;;;;;5012802;28;20137;-70
2022/12/14 06:28:40;;;;;;;39.10;16.50;;;-7.70;99.90;;;;;;5012881;28;20049;-71
2022/12/14 06:31:11;;;;;;;37.30;17.30;;;-7.70;99.90;;;;;;5013190;28;20545;-72
2022/12/14 06:33:37;;;;;;;40.47;17.83;;;-7.70;99.90;;;;;;5014192;28;20042;-71
2022/12/14 06:36:03;;;;;;;40.37;18.90;;;-7.80;99.90;;;;;;5012826;28;20049;-73
2022/12/14 06:38:28;;;;;;;41.83;17.97;;;-7.70;99.90;;;;;;4995010;28;20427;-71
2022/12/14 06:40:54;;;;;;;40.83;17.77;;;-7.70;99.90;;;;;;5011230;28;20049;-70
2022/12/14 06:43:22;;;;;;;39.27;17.50;;;-7.80;99.90;;;;;;4994686;28;20406;-72
2022/12/14 06:45:48;;;;;;;38.87;17.77;;;-7.80;99.90;;;;;;5014172;28;20057;-70
2022/12/14 06:48:14;;;;;;;39.03;17.53;;;-7.80;99.90;;;;;;5032343;28;20683;-71
2022/12/14 06:50:39;;;;;;;40.47;18.13;;;-8.00;99.90;;;;;;5032286;28;20087;-74
2022/12/14 06:53:05;;;;;;;44.77;19.70;;;-7.80;99.90;;;;;;5014123;28;20052;-70
2022/12/14 06:55:31;;;;;;;40.17;18.17;;;-7.80;99.90;;;;;;4998203;28;20084;-71
2022/12/14 06:57:57;;;;;;;42.27;18.27;;;-7.90;99.90;;;;;;5011871;28;20569;-71
2022/12/14 07:00:23;;;;;;;38.60;18.07;;;-7.90;99.90;;;;;;4994220;28;20136;-72
2022/12/14 07:02:49;;;;;;;49.17;20.13;;;-7.90;99.90;;;;;;5012547;28;20053;-71
2022/12/14 07:05:15;;;;;;;50.43;22.30;;;-7.90;99.90;;;;;;5013253;28;20128;-70
2022/12/14 07:07:42;;;;;;;59.20;23.97;;;-7.90;99.90;;;;;;4993242;28;20053;-71
2022/12/14 07:10:08;;;;;;;52.40;23.10;;;-7.90;99.90;;;;;;5012020;28;20092;-71
2022/12/14 07:12:34;;;;;;;46.80;21.70;;;-7.90;99.90;;;;;;5011864;28;20053;-72
2022/12/14 07:15:00;;;;;;;43.10;19.73;;;-7.90;99.90;;;;;;5013374;28;20053;-70
2022/12/14 07:17:25;;;;;;;47.63;19.63;;;-7.90;99.90;;;;;;5012816;28;20061;-70
2022/12/14 07:19:52;;;;;;;39.00;19.60;;;-7.90;99.90;;;;;;5012409;28;20058;-71
2022/12/14 07:22:18;;;;;;;39.70;18.50;;;-7.90;99.90;;;;;;4997350;28;20081;-72
2022/12/14 07:24:44;;;;;;;38.77;18.87;;;-8.00;99.90;;;;;;4992666;28;20106;-71
2022/12/14 07:27:10;;;;;;;38.37;17.30;;;-8.00;99.90;;;;;;5008093;28;20561;-72
2022/12/14 07:29:35;;;;;;;47.83;19.43;;;-7.90;99.90;;;;;;5011766;28;20053;-70
2022/12/14 07:32:02;;;;;;;44.33;18.83;;;-8.00;99.90;;;;;;5011770;28;20053;-73
2022/12/14 07:34:27;;;;;;;46.43;20.13;;;-8.00;99.90;;;;;;5011978;28;20144;-71
2022/12/14 07:36:53;;;;;;;47.53;20.60;;;-8.00;99.90;;;;;;5012413;28;20049;-72
2022/12/14 07:39:20;;;;;;;42.57;19.50;;;-8.00;99.90;;;;;;5011553;28;20099;-71
2022/12/14 07:41:47;;;;;;;42.77;20.47;;;-8.00;99.90;;;;;;4993673;28;20397;-72
2022/12/14 07:44:13;;;;;;;39.53;17.63;;;-8.00;99.90;;;;;;5011438;28;20155;-72
2022/12/14 07:46:40;;;;;;;45.83;18.77;;;-8.10;99.90;;;;;;5011839;28;20080;-70
2022/12/14 07:49:07;;;;;;;42.73;18.43;;;-8.10;99.90;;;;;;5011282;28;20058;-70
2022/12/14 07:51:35;;;;;;;45.13;19.23;;;-8.10;99.90;;;;;;5002993;28;20045;-71
2022/12/14 07:54:04;;;;;;;42.93;18.43;;;-8.10;99.90;;;;;;5010844;28;20057;-72
2022/12/14 07:56:33;;;;;;;47.10;20.10;;;-8.10;99.90;;;;;;5001547;28;20050;-71
2022/12/14 07:59:00;;;;;;;44.63;19.27;;;-8.10;99.90;;;;;;5010004;28;20049;-72
2022/12/14 08:01:34;;;;;;;40.43;19.40;;;-8.10;99.90;;;;;;4991628;28;20058;-71
2022/12/14 08:04:06;;;;;;;42.20;19.83;;;-8.10;99.90;;;;;;4993084;28;20042;-70
2022/12/14 08:06:33;;;;;;;46.63;19.90;;;-8.10;99.90;;;;;;4992961;28;20057;-72
2022/12/14 08:08:59;;;;;;;45.10;20.77;;;-8.10;99.90;;;;;;4974797;28;20498;-71
2022/12/14 08:11:25;;;;;;;39.47;20.77;;;-8.10;99.90;;;;;;4982055;28;20054;-70
2022/12/14 08:13:56;;;;;;;44.10;20.20;;;-8.10;99.90;;;;;;4973301;28;20056;-74
2022/12/14 08:16:22;;;;;;;46.20;20.63;;;-8.10;99.90;;;;;;4991426;28;20054;-75
2022/12/14 08:18:49;;;;;;;50.20;21.03;;;-8.10;99.90;;;;;;4983280;28;20050;-74
2022/12/14 08:21:19;;;;;;;43.60;20.17;;;-8.10;99.90;;;;;;5021633;28;20056;-72
2022/12/14 08:23:45;;;;;;;43.13;20.17;;;-8.10;99.90;;;;;;5010187;28;20497;-71
2022/12/14 08:26:10;;;;;;;46.27;18.63;;;-8.10;99.90;;;;;;4989387;28;20050;-70
2022/12/14 08:28:36;;;;;;;51.07;19.47;;;-8.10;99.90;;;;;;4990478;28;20041;-72
2022/12/14 08:31:07;;;;;;;45.87;20.53;;;-8.00;99.90;;;;;;4997541;28;20044;-71
2022/12/14 08:33:35;;;;;;;55.47;20.33;;;-8.00;99.90;;;;;;5011273;28;20490;-71
2022/12/14 08:36:08;;;;;;;54.03;21.60;;;-8.00;99.90;;;;;;4992445;28;20390;-74
2022/12/14 08:38:35;;;;;;;44.77;20.73;;;-8.00;99.90;;;;;;5010136;28;20140;-71
2022/12/14 08:41:05;;;;;;;41.73;20.93;;;-8.00;99.90;;;;;;5010198;28;20131;-76
2022/12/14 08:43:31;;;;;;;49.33;20.83;;;-7.90;99.90;;;;;;4993329;28;20056;-75
2022/12/14 08:45:57;;;;;;;55.07;22.83;;;-7.90;99.90;;;;;;5010300;28;20401;-71
2022/12/14 08:48:23;;;;;;;47.13;19.53;;;-7.90;99.90;;;;;;5010300;28;20090;-71
2022/12/14 08:50:50;;;;;;;50.97;21.07;;;-7.90;99.90;;;;;;4993263;28;20485;-70
2022/12/14 08:53:15;;;;;;;50.07;20.93;;;-7.80;99.90;;;;;;5009981;28;20133;-71
2022/12/14 08:55:41;;;;;;;49.77;22.40;;;-7.80;99.90;;;;;;4995137;28;20120;-70
2022/12/14 08:58:07;;;;;;;47.57;21.07;;;-6.90;99.90;;;;;;5002263;28;20045;-71
2022/12/14 09:00:32;;;;;;;54.33;22.40;;;-7.70;99.90;;;;;;4990660;28;20457;-72
2022/12/14 09:02:58;;;;;;;53.30;21.63;;;-7.70;99.90;;;;;;4982118;28;20053;-71
2022/12/14 09:05:24;;;;;;;47.97;22.53;;;-7.60;99.90;;;;;;5012657;28;20370;-71
2022/12/14 09:07:50;;;;;;;55.87;22.30;;;-7.60;99.90;;;;;;5030098;28;20094;-71
2022/12/14 09:10:15;;;;;;;45.97;21.90;;;-7.50;99.90;;;;;;5030163;28;20045;-71
2022/12/14 09:12:41;;;;;;;44.33;20.97;;;-7.40;99.90;;;;;;5027956;28;20436;-71
2022/12/14 09:15:07;;;;;;;49.80;22.13;;;-7.40;99.90;;;;;;5012195;28;20049;-72
2022/12/14 09:17:33;;;;;;;48.90;21.50;;;-7.30;99.90;;;;;;5030095;28;20049;-72
2022/12/14 09:19:59;;;;;;;59.47;22.17;;;-7.20;99.90;;;;;;4996349;28;20062;-73
2022/12/14 09:22:25;;;;;;;52.43;22.03;;;-7.10;99.90;;;;;;4990798;28;20373;-71
2022/12/14 09:24:51;;;;;;;55.93;21.77;;;-7.00;99.90;;;;;;4973549;28;20149;-71
2022/12/14 09:27:16;;;;;;;48.03;21.47;;;-6.90;99.90;;;;;;5013447;28;20128;-71
2022/12/14 09:29:42;;;;;;;48.63;22.70;;;-6.90;99.90;;;;;;5029508;28;20136;-71
2022/12/14 09:32:08;;;;;;;46.23;21.17;;;-6.70;99.90;;;;;;5012187;28;20065;-71
2022/12/14 09:34:34;;;;;;;49.93;22.00;;;-6.70;99.90;;;;;;5010575;28;20372;-71
2022/12/14 09:37:03;;;;;;;49.77;22.57;;;-6.50;99.90;;;;;;5030071;28;20122;-73
2022/12/14 09:39:30;;;;;;;55.07;22.47;;;-6.40;99.90;;;;;;5012154;28;20541;-72
2022/12/14 09:42:07;;;;;;;51.27;22.57;;;-6.30;99.90;;;;;;5029881;28;20153;-73
2022/12/14 09:44:51;;;;;;;47.53;20.83;;;-6.20;99.90;;;;;;5027777;28;20046;-74
2022/12/14 09:47:18;;;;;;;52.57;21.20;;;-5.90;99.90;;;;;;5011717;28;20049;-73
2022/12/14 09:49:59;;;;;;;52.07;23.10;;;-5.80;99.90;;;;;;4995542;28;20041;-71
2022/12/14 09:52:28;;;;;;;52.73;22.60;;;-5.60;99.90;;;;;;5029337;28;20050;-72
2022/12/14 09:54:55;;;;;;;51.83;20.40;;;-5.50;99.90;;;;;;5009928;28;20052;-73
2022/12/14 09:57:40;;;;;;;52.23;21.50;;;-5.30;99.90;;;;;;5029910;28;20057;-77
2022/12/14 10:00:43;;;;;;;51.88;21.13;;;-5.10;99.90;;;;;;5011509;28;20096;-72
2022/12/14 10:03:29;;;;;;;53.37;22.20;;;-4.80;99.90;;;;;;4990012;28;20059;-72
2022/12/14 10:06:14;;;;;;;46.20;21.67;;;-4.60;99.90;;;;;;5029840;28;20095;-73
2022/12/14 10:08:50;;;;;;;55.92;22.45;;;-4.30;99.90;;;;;;5029780;28;20038;-73
2022/12/14 10:11:42;;;;;;;53.20;20.97;;;-4.00;99.90;;;;;;5011568;28;20073;-73
2022/12/14 10:14:50;;;;;;;49.63;21.53;;;-3.70;99.90;;;;;;5007908;28;20115;-73
2022/12/14 10:17:25;;;;;;;46.60;20.90;;;-3.40;99.90;;;;;;4990195;28;20046;-73
2022/12/14 10:19:54;;;;;;;51.15;21.63;;;-3.10;99.90;;;;;;4990101;28;20100;-73
2022/12/14 10:22:29;;;;;;;46.67;21.40;;;-2.90;99.90;;;;;;4990277;28;20043;-74
2022/12/14 10:25:11;;;;;;;44.33;19.60;;;-2.70;99.90;;;;;;4972518;28;20117;-73
2022/12/14 10:27:39;;;;;;;41.77;19.40;;;-2.40;99.90;;;;;;4990225;28;20046;-73
2022/12/14 10:30:13;;;;;;;39.27;19.07;;;-2.20;99.90;;;;;;5009624;28;20046;-74
2022/12/14 10:32:45;;;;;;;43.13;19.45;;;-2.00;99.90;;;;;;4992034;28;20058;-74
2022/12/14 10:35:16;;;;;;;39.70;18.33;;;-1.90;99.90;;;;;;5009776;28;20393;-73
2022/12/14 10:38:00;;;;;;;40.65;18.15;;;-1.70;99.90;;;;;;4991536;28;20050;-73
2022/12/14 10:40:30;;;;;;;39.65;19.15;;;-1.50;99.90;;;;;;5009648;28;20096;-73
2022/12/14 10:43:20;;;;;;;36.03;17.92;;;-1.30;99.90;;;;;;5012352;28;20128;-73
2022/12/14 10:46:03;;;;;;;41.03;18.10;;;-1.10;99.90;;;;;;5013232;28;20107;-72
2022/12/14 10:48:29;;;;;;;34.20;16.80;;;-0.90;99.90;;;;;;5013221;28;20100;-73
2022/12/14 10:50:57;;;;;;;30.60;15.75;;;-0.70;99.90;;;;;;5013362;28;20086;-72
2022/12/14 10:53:43;;;;;;;34.50;15.52;;;-0.60;99.90;;;;;;5013412;28;20085;-74
2022/12/14 10:56:19;;;;;;;34.35;16.38;;;-0.50;99.90;;;;;;4995349;28;20140;-73
2022/12/14 10:59:17;;;;;;;28.35;15.07;;;-0.30;99.90;;;;;;5012849;28;20061;-73
2022/12/14 11:01:50;;;;;;;32.63;16.08;;;-0.20;99.90;;;;;;4995175;28;20053;-72
2022/12/14 11:04:43;;;;;;;32.15;16.08;;;0.00;99.90;;;;;;4991800;28;20050;-72
2022/12/14 11:07:11;;;;;;;30.42;16.33;;;0.10;99.90;;;;;;4993260;28;20125;-72
2022/12/14 11:09:38;;;;;;;34.47;16.05;;;0.20;99.90;;;;;;4983967;28;20052;-72
2022/12/14 11:12:13;;;;;;;32.78;15.60;;;0.30;99.90;;;;;;5008950;28;20452;-72
2022/12/14 11:14:52;;;;;;;31.15;15.40;;;0.40;99.90;;;;;;5012661;28;20050;-72
2022/12/14 11:17:42;;;;;;;29.15;15.70;;;0.50;99.90;;;;;;5012861;28;20074;-72
2022/12/14 11:20:08;;;;;;;35.85;17.30;;;0.50;99.90;;;;;;5012313;28;20061;-72
2022/12/14 11:22:45;;;;;;;34.65;16.75;;;0.60;99.90;;;;;;5013658;28;20409;-71
2022/12/14 11:25:41;;;;;;;34.10;16.88;;;0.60;99.90;;;;;;5001463;28;20059;-72
2022/12/14 11:28:29;;;;;;;32.33;15.88;;;0.70;99.90;;;;;;5011910;28;20081;-71
2022/12/14 11:31:23;;;;;;;31.90;16.88;;;0.90;99.90;;;;;;5011662;28;20129;-72
2022/12/14 11:33:51;;;;;;;31.05;16.33;;;1.00;99.90;;;;;;4931668;29;20111;-78
2022/12/14 11:36:39;;;;;;;31.52;16.65;;;1.10;99.90;;;;;;4929500;29;20518;-72
2022/12/14 11:39:13;;;;;;;28.13;15.52;;;1.20;99.90;;;;;;4931618;29;20107;-75
2022/12/14 11:42:00;;;;;;;31.17;15.27;;;1.30;99.90;;;;;;4931652;29;20051;-72
2022/12/14 11:44:34;;;;;;;28.90;14.63;;;1.50;99.90;;;;;;4915483;29;20063;-73
2022/12/14 11:47:04;;;;;;;29.38;14.60;;;1.60;99.90;;;;;;4903732;29;20205;-74
2022/12/14 11:49:39;;;;;;;30.15;15.95;;;1.80;99.90;;;;;;4912399;29;20535;-74
2022/12/14 11:52:04;;;;;;;31.42;16.83;;;2.00;99.90;;;;;;4947462;28;20055;-73
2022/12/14 11:54:40;;;;;;;31.67;16.38;;;1.90;99.90;;;;;;4950299;29;20058;-74
2022/12/14 11:57:10;;;;;;;28.60;15.75;;;2.00;99.90;;;;;;4934562;29;20130;-72
2022/12/14 11:59:44;;;;;;;29.58;16.40;;;2.00;99.90;;;;;;4930414;29;20056;-72
2022/12/14 12:02:16;;;;;;;31.85;16.70;;;2.20;99.90;;;;;;4931047;29;20577;-73
2022/12/14 12:04:45;;;;;;;30.45;16.77;;;2.30;99.90;;;;;;4931023;29;20052;-76
2022/12/14 12:07:47;;;;;;;30.25;16.98;;;2.40;99.90;;;;;;4915010;29;20051;-73
2022/12/14 12:10:15;;;;;;;31.48;15.43;;;2.50;99.90;;;;;;4940489;28;20138;-72
2022/12/14 12:12:50;;;;;;;29.33;16.38;;;2.70;99.90;;;;;;4987423;28;20061;-72
2022/12/14 12:15:24;;;;;;;31.58;17.10;;;2.80;99.90;;;;;;5010701;28;20545;-72
2022/12/14 12:17:54;;;;;;;29.50;16.40;;;2.90;99.90;;;;;;5010535;28;20440;-75
2022/12/14 12:20:33;;;;;;;31.02;15.52;;;2.90;99.90;;;;;;5010686;28;20045;-74
2022/12/14 12:23:13;;;;;;;23.77;13.63;;;3.00;99.90;;;;;;5010796;28;20393;-72
2022/12/14 12:25:40;;;;;;;26.35;13.15;;;3.10;99.90;;;;;;4992593;28;20489;-73
2022/12/14 12:28:23;;;;;;;23.40;12.35;;;3.30;99.90;;;;;;5009846;28;20135;-73
2022/12/14 12:30:53;;;;;;;28.05;13.52;;;3.30;99.90;;;;;;4992618;28;20050;-80
2022/12/14 12:33:38;;;;;;;25.92;12.20;;;3.50;99.90;;;;;;5010664;28;20056;-73
2022/12/14 12:36:04;;;;;;;23.15;11.90;;;3.40;99.90;;;;;;5010038;28;20124;-74
2022/12/14 12:38:43;;;;;;;23.20;12.52;;;3.50;99.90;;;;;;5010279;28;20485;-73
2022/12/14 12:41:49;;;;;;;23.10;12.93;;;3.50;99.90;;;;;;4992775;28;20049;-75
2022/12/14 12:44:32;;;;;;;25.75;13.73;;;3.60;99.90;;;;;;5010461;28;20054;-73
2022/12/14 12:47:17;;;;;;;22.88;13.20;;;3.60;99.90;;;;;;4992089;28;20050;-72
2022/12/14 12:49:43;;;;;;;23.55;12.57;;;3.60;99.90;;;;;;5010260;28;20052;-73
2022/12/14 12:52:38;;;;;;;28.63;12.52;;;3.70;99.90;;;;;;4992497;28;20136;-74
2022/12/14 12:55:15;;;;;;;21.65;12.73;;;3.70;99.90;;;;;;5010096;28;20088;-75
2022/12/14 12:57:44;;;;;;;22.77;12.98;;;3.70;99.90;;;;;;4974963;28;20100;-73
2022/12/14 13:00:18;;;;;;;27.33;12.98;;;3.70;99.90;;;;;;5009735;28;20586;-76
2022/12/14 13:02:59;;;;;;;26.40;12.65;;;3.90;99.90;;;;;;4992176;28;20054;-72
2022/12/14 13:05:28;;;;;;;27.42;13.50;;;3.90;99.90;;;;;;5009444;28;20064;-73
2022/12/14 13:07:56;;;;;;;26.13;13.75;;;3.90;99.90;;;;;;4991856;28;20050;-76